Aérodrome :
LOGIN :

S'inscrire | Disclaimer

   EN    FR    IT 

 










Légende :    VFR   VFR Marginal   IFR   IFR Intensif   IFR Très Intensif
Visi : 
Plafond : 
>= 8 km
>= 3000ft
5 à 8 km
1000 à 3000 ft
1500m à 5 km
500 à 1000 ft
800 à 1500m
200 à 500 ft
< 800m
< 200 ft
Symboles :   Orages  Brouillard  Fortes neiges  Fortes précipitations  Vent > 20 kt
SIGMETs :   Divers  Orages  Givrage  Turbulence  Onde Orograph.  Cendres Volcan.






- Altitude de l'aérodrome : 1041 ft
- Code IATA : XMF


LFSM - Montbéliard-Courcelles

DERNIER METAR :
  • 141330Z AUTO 24013KT CAVOK 25/09 Q1021

METARs EXPIRÉS :
  • 141300Z AUTO 24008KT 210V270 CAVOK 25/12 Q1022
  • 141230Z AUTO 25009KT 160V300 CAVOK 25/12 Q1022
  • 141200Z AUTO 25011KT CAVOK 24/11 Q1022
  • 141130Z AUTO 24012KT CAVOK 24/11 Q1023
  • 141100Z AUTO 23008KT 190V260 CAVOK 24/12 Q1023
  • 141030Z AUTO 24009KT 210V280 CAVOK 24/13 Q1023
  • 141000Z AUTO 23008KT 200V270 CAVOK 23/12 Q1024
  • 140930Z AUTO 23008KT 190V260 CAVOK 22/12 Q1024
  • 140900Z AUTO 23009KT CAVOK 22/12 Q1024

TAF N/A



MET'MAP, la Météo Aéronautique d'un coup d'oeil ! - Copyright ORBIFLY Décembre 2007 - Disclaimer

ORBIFLY MET'MAP TEAM :

Programmation & Développement : Alexandra Zaïnal
Sur une idée originale de : Baudouin d'Aumeries
Soutien technique & logistique : Manuel Goepfert
Assistance : Marc-Olivier Méhu




SOURCES & CREDITS :

   NOAA